Time;durP1;ratioP1;P1;durP2;ratioP2;P2;SDS_P1;SDS_P2;PMS_P1;PMS_P2;Temp;Humidity;BMP_temperature;BMP_pressure;BME280_temperature;BME280_humidity;BME280_pressure;Samples;Min_cycle;Max_cycle;Signal;HPM_P1;HPM_P2
2022/05/24 03:01:07;;;;;;;;;;;;;;;;;;;;;
2022/05/24 03:14:47;;;;;;;;;1.00;1.00;;;;;16.61;59.09;100224.88;4837877;29;45268;-70
2022/05/24 03:28:53;;;;;;;;;;;;;;;;;;;;;
2022/05/24 04:17:46;;;;;;;;;;;;;;;;;;;;;
2022/05/24 04:37:43;;;;;;;;;0.00;0.00;;;;;16.29;58.56;100314.03;4838325;29;45604;-73
2022/05/24 04:40:12;;;;;;;;;1.25;1.00;;;;;16.08;58.53;100281.22;4919524;28;45412;-73
2022/05/24 04:42:38;;;;;;;;;0.25;0.00;;;;;16.09;59.02;100288.38;4946954;28;45292;-73
2022/05/24 04:45:08;;;;;;;;;2.00;0.00;;;;;15.97;58.30;100273.00;4951471;28;45522;-73
2022/05/24 04:47:35;;;;;;;;;2.00;0.00;;;;;16.28;58.57;100328.44;4942433;28;45340;-73
2022/05/24 04:50:08;;;;;;;;;0.00;0.00;;;;;15.91;58.69;100284.97;4941781;28;45470;-73
2022/05/24 04:52:40;;;;;;;;;1.00;1.00;;;;;16.23;58.59;100343.19;4956098;28;45335;-73
2022/05/24 04:55:11;;;;;;;;;1.00;0.00;;;;;16.00;58.36;100297.00;4940946;28;45745;-73
2022/05/24 04:57:37;;;;;;;;;1.00;0.75;;;;;15.97;58.53;100293.63;4938145;28;45587;-73
2022/05/24 05:00:14;;;;;;;;;0.50;0.50;;;;;16.21;58.57;100335.19;4951313;28;47219;-73
2022/05/24 05:02:42;;;;;;;;;0.00;0.00;;;;;16.13;58.51;100325.88;4937819;28;45459;-73
2022/05/24 05:05:13;;;;;;;;;0.00;0.00;;;;;15.96;58.18;100302.69;4936803;28;45371;-73
2022/05/24 05:07:40;;;;;;;;;1.00;1.00;;;;;16.18;58.31;100361.47;4942341;28;45236;-73
2022/05/24 05:10:07;;;;;;;;;0.00;0.00;;;;;15.81;58.38;100297.28;4953011;28;46186;-73
2022/05/24 05:12:33;;;;;;;;;0.00;0.00;;;;;15.93;58.44;100318.03;4937989;28;45462;-72
2022/05/24 05:14:58;;;;;;;;;1.00;1.00;;;;;16.04;58.56;100365.00;4935670;28;45503;-73
2022/05/24 05:17:26;;;;;;;;;1.00;1.00;;;;;15.64;58.24;100284.84;4929643;28;47442;-73
2022/05/24 05:19:55;;;;;;;;;1.00;1.00;;;;;15.73;58.29;100310.31;4951861;28;47069;-73
2022/05/24 05:22:51;;;;;;;;;;;;;;;;;;;;;
2022/05/24 05:25:17;;;;;;;;;0.00;0.00;;;;;15.59;58.46;100291.47;4937329;28;67946;-73
2022/05/24 05:27:42;;;;;;;;;2.00;0.00;;;;;15.99;58.17;100369.78;4935145;28;46077;-74
2022/05/24 05:33:02;;;;;;;;;1.00;1.00;;;;;15.89;58.62;100350.66;4942581;28;45495;-74
2022/05/24 05:35:28;;;;;;;;;0.50;0.50;;;;;15.88;58.39;100349.75;4935755;28;45606;-73
2022/05/24 05:37:53;;;;;;;;;3.00;1.00;;;;;15.65;58.45;100312.59;4938001;28;45417;-73
2022/05/24 05:40:19;;;;;;;;;2.00;1.00;;;;;15.84;58.16;100342.84;4941173;28;46218;-73
2022/05/24 05:42:44;;;;;;;;;0.00;0.00;;;;;15.98;58.30;100363.53;4953468;28;45373;-73
2022/05/24 05:45:11;;;;;;;;;0.00;0.00;;;;;15.83;58.03;100346.50;4940290;28;45737;-73
2022/05/24 05:47:37;;;;;;;;;2.00;1.00;;;;;15.71;58.05;100336.44;4946540;28;45446;-73
2022/05/24 05:50:04;;;;;;;;;0.00;0.00;;;;;16.10;58.34;100405.88;4956491;28;46159;-74
2022/05/24 05:52:30;;;;;;;;;0.00;0.00;;;;;15.69;58.43;100339.22;4948291;28;45415;-74
2022/05/24 05:54:55;;;;;;;;;0.00;0.00;;;;;15.78;58.32;100380.03;4946404;28;45300;-74
2022/05/24 05:57:38;;;;;;;;;;;;;;;;;;;;;
2022/05/24 06:00:04;;;;;;;;;0.75;0.75;;;;;15.93;58.53;100417.66;4950631;28;75534;-74
2022/05/24 06:02:30;;;;;;;;;0.00;0.00;;;;;15.73;58.69;100389.19;4939071;28;45431;-74
2022/05/24 06:04:55;;;;;;;;;0.75;0.75;;;;;15.55;58.43;100358.00;4951948;28;45386;-74
2022/05/24 06:07:22;;;;;;;;;2.00;0.00;;;;;15.97;58.54;100441.69;4950708;28;45454;-73
2022/05/24 06:09:48;;;;;;;;;0.00;0.00;;;;;15.57;58.26;100383.88;4949392;28;47369;-71
2022/05/24 06:12:13;;;;;;;;;0.00;0.00;;;;;15.42;58.39;100352.50;4953301;28;45424;-71
2022/05/24 06:14:38;;;;;;;;;2.25;0.25;;;;;15.62;58.62;100396.16;4943860;28;45948;-71
2022/05/24 06:17:04;;;;;;;;;0.00;0.00;;;;;15.88;58.66;100437.72;4944198;28;45637;-71
2022/05/24 06:19:32;;;;;;;;;1.00;1.00;;;;;15.57;58.88;100389.25;4942223;28;46196;-72
2022/05/24 06:21:57;;;;;;;;;0.00;0.00;;;;;15.66;58.78;100398.59;4944196;28;45955;-72
2022/05/24 06:24:23;;;;;;;;;1.00;0.00;;;;;15.61;58.73;100400.69;4934310;28;45432;-72
2022/05/24 06:26:50;;;;;;;;;3.00;3.00;;;;;15.85;58.51;100440.59;4937617;28;45665;-72
2022/05/24 06:29:19;;;;;;;;;2.00;2.00;;;;;15.49;58.45;100378.06;4950937;28;45335;-72
2022/05/24 06:31:45;;;;;;;;;1.50;0.00;;;;;15.59;58.45;100394.53;4949169;28;45586;-72
2022/05/24 06:34:11;;;;;;;;;0.50;0.50;;;;;15.83;58.17;100435.31;4935341;28;45417;-73
2022/05/24 06:36:37;;;;;;;;;1.00;1.00;;;;;15.74;58.14;100417.00;4936189;28;45576;-73
2022/05/24 06:39:03;;;;;;;;;0.75;0.50;;;;;16.09;58.14;100463.38;4935399;28;47579;-72
2022/05/24 06:41:31;;;;;;;;;1.00;1.00;;;;;15.80;57.97;100416.63;4942349;28;45359;-70
2022/05/24 06:44:07;;;;;;;;;1.50;1.00;;;;;15.94;58.18;100437.38;4933250;28;45555;-73
2022/05/24 06:46:33;;;;;;;;;0.00;0.00;;;;;15.80;58.26;100415.78;4932343;28;45481;-74
2022/05/24 06:48:59;;;;;;;;;1.00;1.00;;;;;16.07;58.13;100462.59;4937659;28;47160;-73
2022/05/24 06:55:25;;;;;;;;;1.25;0.00;;;;;15.67;58.11;100404.84;5000080;28;45527;-76
2022/05/24 06:58:01;;;;;;;;;;;;;;;;;;;;;
2022/05/24 07:03:45;;;;;;;;;;;;;;;;;;;;;
2022/05/24 07:06:42;;;;;;;;;;;;;;;;;;;;;
2022/05/24 07:09:31;;;;;;;;;1.00;0.00;;;;;15.98;57.91;100454.22;4929872;28;72867;-74
2022/05/24 07:12:16;;;;;;;;;2.00;1.00;;;;;15.79;57.44;100433.75;4926010;28;45779;-74
2022/05/24 07:17:47;;;;;;;;;0.00;0.00;;;;;15.91;56.93;100446.47;4944300;28;45806;-74
2022/05/24 07:24:10;;;;;;;;;1.50;0.50;;;;;15.81;57.26;100433.69;4945518;28;46972;-74
2022/05/24 07:26:51;;;;;;;;;;;;;;;;;;;;;
2022/05/24 07:29:46;;;;;;;;;0.75;0.25;;;;;15.78;57.61;100429.31;4955768;28;68858;-74
2022/05/24 07:32:50;;;;;;;;;;;;;;;;;;;;;
2022/05/24 07:35:39;;;;;;;;;1.50;1.00;;;;;15.89;57.24;100436.78;4937434;28;76300;-75
2022/05/24 07:38:20;;;;;;;;;;;;;;;;;;;;;
2022/05/24 07:46:46;;;;;;;;;;;;;;;;;;;;;
2022/05/24 07:52:45;;;;;;;;;0.25;0.25;;;;;16.13;56.49;100447.03;4936633;28;46655;-74
2022/05/24 07:55:44;;;;;;;;;1.00;1.00;;;;;16.09;56.30;100439.13;4922807;28;45487;-74
2022/05/24 08:01:13;;;;;;;;;;;;;;;;;;;;;
2022/05/24 08:04:11;;;;;;;;;;;;;;;;;;;;;
2022/05/24 08:07:27;;;;;;;;;;;;;;;;;;;;;
2022/05/24 08:10:12;;;;;;;;;;;;;;;;;;;;;
2022/05/24 08:13:28;;;;;;;;;1.00;1.00;;;;;16.73;55.83;100522.38;4950904;28;73268;-74
2022/05/24 08:16:46;;;;;;;;;;;;;;;;;;;;;
2022/05/24 08:19:34;;;;;;;;;1.00;1.00;;;;;16.19;55.22;100420.59;4940821;28;72826;-72
2022/05/24 08:25:45;;;;;;;;;;;;;;;;;;;;;
2022/05/24 08:28:47;;;;;;;;;0.00;0.00;;;;;16.45;54.89;100432.44;4956935;28;67956;-73
2022/05/24 08:31:41;;;;;;;;;;;;;;;;;;;;;
2022/05/24 08:37:53;;;;;;;;;;;;;;;;;;;;;
2022/05/24 08:40:48;;;;;;;;;0.50;0.50;;;;;16.65;54.25;100441.97;4933301;28;70070;-73
2022/05/24 08:44:01;;;;;;;;;;;;;;;;;;;;;
2022/05/24 08:53:30;;;;;;;;;0.00;0.00;;;;;17.17;52.97;100513.38;4922902;28;45332;-74
2022/05/24 08:57:06;;;;;;;;;;;;;;;;;;;;;
2022/05/24 09:03:36;;;;;;;;;0.50;0.50;;;;;17.17;53.25;100488.22;4953308;28;45620;-73
2022/05/24 09:06:23;;;;;;;;;;;;;;;;;;;;;
2022/05/24 09:18:20;;;;;;;;;7.25;3.75;;;;;17.07;51.79;100444.78;4917049;28;45491;-76
2022/05/24 09:31:51;;;;;;;;;0.00;0.00;;;;;17.11;51.44;100430.16;4940788;28;45699;-73
2022/05/24 09:57:19;;;;;;;;;;;;;;;;;;;;;
2022/05/24 10:00:22;;;;;;;;;;;;;;;;;;;;;
2022/05/24 10:03:08;;;;;;;;;0.00;0.00;;;;;17.78;50.06;100543.59;4818321;29;71144;-73
2022/05/24 10:05:37;;;;;;;;;1.00;1.00;;;;;17.70;49.88;100537.84;4794835;29;46401;-75
2022/05/24 10:08:11;;;;;;;;;0.00;0.00;;;;;17.53;49.84;100497.59;4805884;29;45725;-74
2022/05/24 10:10:40;;;;;;;;;0.50;0.50;;;;;17.30;49.90;100464.03;4909916;28;47466;-75
2022/05/24 10:13:27;;;;;;;;;0.50;0.50;;;;;17.80;49.51;100548.91;4926551;28;45934;-74
2022/05/24 10:15:52;;;;;;;;;0.00;0.00;;;;;17.83;49.65;100547.84;4934447;28;47080;-74
2022/05/24 10:18:39;;;;;;;;;0.00;0.00;;;;;17.71;49.29;100534.19;4930571;28;45403;-74
2022/05/24 10:21:39;;;;;;;;;0.50;0.50;;;;;17.84;49.62;100541.47;4946798;28;46246;-75
2022/05/24 10:24:29;;;;;;;;;2.00;0.00;;;;;17.48;49.06;100478.16;4942666;28;45466;-74
2022/05/24 10:27:19;;;;;;;;;0.25;0.00;;;;;17.85;48.92;100554.00;4921596;28;48267;-74
2022/05/24 10:30:03;;;;;;;;;0.75;0.75;;;;;17.86;48.45;100555.72;4931109;28;47867;-74
2022/05/24 10:38:40;;;;;;;;;0.75;0.75;;;;;17.84;49.63;100555.84;4925876;28;45799;-74
2022/05/24 10:41:16;;;;;;;;;1.00;0.75;;;;;17.65;49.05;100529.19;4931493;28;45617;-74
2022/05/24 10:44:11;;;;;;;;;1.50;0.50;;;;;17.72;49.42;100521.53;4946879;28;45539;-74
2022/05/24 10:46:55;;;;;;;;;2.50;1.50;;;;;17.90;48.81;100558.16;4954621;28;45577;-74
2022/05/24 10:49:39;;;;;;;;;3.50;2.50;;;;;17.93;49.03;100566.06;4942141;28;45581;-74
2022/05/24 10:52:23;;;;;;;;;0.50;0.50;;;;;17.87;48.20;100544.84;4944079;28;45836;-74
2022/05/24 10:54:51;;;;;;;;;0.00;0.00;;;;;17.57;48.41;100494.63;4926308;28;45885;-74
2022/05/24 10:57:26;;;;;;;;;1.25;1.25;;;;;17.65;48.31;100506.72;4951413;28;45396;-74
2022/05/24 11:00:12;;;;;;;;;1.25;0.50;;;;;17.95;48.09;100557.84;4954858;28;47673;-74
2022/05/24 11:03:02;;;;;;;;;1.00;0.25;;;;;17.74;48.26;100511.50;4950713;28;45592;-74
2022/05/24 11:05:31;;;;;;;;;0.50;0.50;;;;;17.72;48.72;100508.91;4933688;28;45717;-75
2022/05/24 11:08:25;;;;;;;;;1.00;1.00;;;;;18.00;48.77;100554.88;4948740;28;45384;-75
2022/05/24 11:11:04;;;;;;;;;0.50;0.50;;;;;17.84;48.93;100531.56;4929487;28;47262;-74
2022/05/24 11:13:54;;;;;;;;;1.50;1.50;;;;;18.03;48.39;100566.31;4946062;28;45463;-74
2022/05/24 11:16:33;;;;;;;;;0.75;0.75;;;;;17.79;47.78;100525.56;4936982;28;45451;-75
2022/05/24 11:18:59;;;;;;;;;1.00;0.00;;;;;17.95;47.83;100553.31;4935568;28;45416;-75
2022/05/24 11:21:31;;;;;;;;;0.00;0.00;;;;;17.60;48.49;100486.28;4933468;28;45568;-74
2022/05/24 11:24:19;;;;;;;;;0.50;0.50;;;;;18.06;48.06;100557.13;4961580;28;45434;-74
2022/05/24 11:27:02;;;;;;;;;0.25;0.25;;;;;17.74;48.53;100498.91;4935078;28;45494;-74
2022/05/24 11:29:38;;;;;;;;;1.00;0.00;;;;;17.88;47.97;100510.66;4938647;28;45350;-74
2022/05/24 11:32:10;;;;;;;;;0.50;0.50;;;;;18.14;47.80;100542.16;4938081;28;46139;-74
2022/05/24 11:34:41;;;;;;;;;0.75;0.00;;;;;18.08;48.00;100539.00;4935452;28;45530;-74
2022/05/24 11:37:14;;;;;;;;;1.75;0.75;;;;;17.98;48.11;100529.81;4932488;28;45265;-75
2022/05/24 11:39:46;;;;;;;;;1.00;0.00;;;;;18.11;47.97;100538.81;4937694;28;45309;-74
2022/05/24 11:42:35;;;;;;;;;0.00;0.00;;;;;18.19;47.62;100544.53;4937413;28;45582;-74
2022/05/24 11:45:31;;;;;;;;;0.00;0.00;;;;;18.22;47.05;100552.44;4940577;28;45261;-75
2022/05/24 11:48:06;;;;;;;;;1.75;0.75;;;;;18.22;47.81;100540.78;4926436;28;45527;-74
2022/05/24 11:50:38;;;;;;;;;0.00;0.00;;;;;18.22;47.68;100548.88;4942281;28;45558;-75
2022/05/24 11:53:37;;;;;;;;;2.75;2.00;;;;;18.26;47.99;100534.19;4940250;28;47681;-72
2022/05/24 11:56:13;;;;;;;;;2.00;2.00;;;;;18.31;47.65;100543.72;4945712;28;45489;-74
2022/05/24 11:58:46;;;;;;;;;1.00;1.00;;;;;17.98;47.44;100486.59;4939114;28;45412;-75
2022/05/24 12:01:14;;;;;;;;;0.75;0.75;;;;;18.35;47.63;100543.53;4937229;28;45566;-74
2022/05/24 12:09:59;;;;;;;;;0.25;0.25;;;;;18.35;47.18;100543.53;4929516;28;45744;-77
2022/05/24 12:12:34;;;;;;;;;2.00;0.00;;;;;18.35;46.17;100552.47;4937586;28;46765;-74
2022/05/24 12:15:34;;;;;;;;;0.00;0.00;;;;;18.34;47.11;100545.34;4938968;28;46171;-75
2022/05/24 12:17:59;;;;;;;;;0.00;0.00;;;;;18.35;46.41;100547.06;4944748;28;45425;-75
2022/05/24 12:20:33;;;;;;;;;1.00;1.00;;;;;18.39;46.31;100554.00;4935802;28;45719;-73
2022/05/24 12:23:07;;;;;;;;;1.00;1.00;;;;;18.42;46.18;100551.09;4938183;28;46097;-73
2022/05/24 12:25:55;;;;;;;;;0.00;0.00;;;;;18.44;46.25;100562.69;4939464;28;45504;-76
2022/05/24 12:28:23;;;;;;;;;0.00;0.00;;;;;18.46;46.27;100557.16;4930328;28;45585;-74
2022/05/24 12:30:51;;;;;;;;;0.25;0.25;;;;;18.45;46.38;100558.13;4982922;28;45390;-76
2022/05/24 12:33:31;;;;;;;;;0.00;0.00;;;;;18.50;47.42;100559.53;4929715;28;45689;-76
2022/05/24 12:36:06;;;;;;;;;1.50;0.00;;;;;18.55;47.00;100561.94;4940576;28;45605;-76
2022/05/24 12:38:33;;;;;;;;;0.00;0.00;;;;;18.54;46.17;100549.38;4932410;28;45398;-74
2022/05/24 12:41:14;;;;;;;;;0.50;0.50;;;;;18.59;46.25;100560.72;4938087;28;46150;-78
2022/05/24 12:44:10;;;;;;;;;0.00;0.00;;;;;18.61;46.36;100563.34;4935993;28;45650;-76
2022/05/24 12:46:37;;;;;;;;;0.00;0.00;;;;;18.46;46.54;100528.31;4935580;28;45440;-76
2022/05/24 12:49:09;;;;;;;;;0.00;0.00;;;;;18.55;46.50;100540.31;4939773;28;45541;-76
2022/05/24 12:51:37;;;;;;;;;0.25;0.25;;;;;18.56;46.89;100536.66;4934898;28;45701;-77
2022/05/24 12:54:25;;;;;;;;;0.00;0.00;;;;;18.63;46.67;100545.19;4938181;28;46068;-77
2022/05/24 12:56:57;;;;;;;;;0.50;0.50;;;;;18.61;46.84;100533.59;4933887;28;46942;-77
2022/05/24 12:59:36;;;;;;;;;1.00;1.00;;;;;18.67;45.83;100549.41;4933549;28;45991;-77
2022/05/24 13:02:30;;;;;;;;;0.50;0.50;;;;;18.74;46.23;100553.41;4935182;28;45506;-77
2022/05/24 13:05:29;;;;;;;;;0.25;0.25;;;;;18.80;45.56;100538.59;4936016;28;45505;-76
2022/05/24 13:07:59;;;;;;;;;0.00;0.00;;;;;18.84;44.71;100545.53;4937640;28;45550;-77
2022/05/24 13:10:28;;;;;;;;;0.00;0.00;;;;;18.87;44.71;100539.94;4937850;28;45799;-76
2022/05/24 13:13:05;;;;;;;;;0.00;0.00;;;;;18.88;44.87;100529.00;4933883;28;45777;-76
2022/05/24 13:15:41;;;;;;;;;0.00;0.00;;;;;18.95;45.40;100548.38;4954891;28;45331;-77
2022/05/24 13:18:21;;;;;;;;;0.00;0.00;;;;;18.97;45.06;100540.16;4964609;28;47862;-77
2022/05/24 13:20:59;;;;;;;;;1.25;0.75;;;;;19.05;44.96;100543.19;4942207;28;45433;-77
2022/05/24 13:23:28;;;;;;;;;0.00;0.00;;;;;19.03;45.08;100526.19;4936735;28;45495;-77
2022/05/24 13:26:14;;;;;;;;;1.00;0.75;;;;;19.04;45.02;100527.91;4941191;28;45529;-77
2022/05/24 13:28:52;;;;;;;;;0.75;0.75;;;;;19.12;45.26;100547.16;4927186;28;47488;-77
2022/05/24 13:34:24;;;;;;;;;0.00;0.00;;;;;19.21;45.22;100548.34;4939261;28;45399;-77
2022/05/24 13:36:59;;;;;;;;;0.00;0.00;;;;;19.20;44.97;100542.06;4946397;28;45424;-77
2022/05/24 13:39:46;;;;;;;;;0.25;0.25;;;;;19.23;45.33;100549.13;4940600;28;45375;-77
2022/05/24 13:42:17;;;;;;;;;1.00;1.00;;;;;19.27;45.33;100547.91;4943266;28;45509;-77
2022/05/24 13:45:21;;;;;;;;;1.00;1.00;;;;;19.31;44.71;100545.84;4956720;28;45750;-77
2022/05/24 13:47:58;;;;;;;;;0.00;0.00;;;;;19.31;44.18;100541.31;4968847;28;45642;-78
2022/05/24 13:50:29;;;;;;;;;0.00;0.00;;;;;19.33;44.05;100547.47;4948089;28;46242;-77
2022/05/24 13:53:03;;;;;;;;;0.75;0.00;;;;;19.35;42.71;100555.50;4935390;28;45428;-78
2022/05/24 13:55:31;;;;;;;;;1.00;0.00;;;;;19.37;43.50;100545.41;4946924;28;45363;-80
2022/05/24 13:57:59;;;;;;;;;0.00;0.00;;;;;19.40;42.31;100542.50;4941460;28;47017;-80
2022/05/24 14:00:54;;;;;;;;;0.00;0.00;;;;;19.41;42.89;100536.97;4932226;28;47724;-77
2022/05/24 14:03:26;;;;;;;;;0.00;0.00;;;;;19.47;42.58;100543.75;4964215;28;45320;-76
2022/05/24 14:06:17;;;;;;;;;0.00;0.00;;;;;19.53;42.07;100539.72;4952748;28;45469;-75
2022/05/24 14:08:44;;;;;;;;;0.00;0.00;;;;;19.50;42.13;100527.31;4930261;28;45512;-75
2022/05/24 14:11:18;;;;;;;;;0.00;0.00;;;;;19.55;41.92;100533.25;4942428;28;47595;-75
2022/05/24 14:13:45;;;;;;;;;0.25;0.00;;;;;19.58;42.42;100541.13;4936708;28;45454;-76
2022/05/24 14:16:12;;;;;;;;;0.00;0.00;;;;;19.65;42.39;100546.13;4936307;28;45545;-76
2022/05/24 14:18:38;;;;;;;;;1.00;0.00;;;;;19.63;42.39;100538.97;4934921;28;45661;-76
2022/05/24 14:21:05;;;;;;;;;0.00;0.00;;;;;19.71;42.26;100543.81;4931558;28;45508;-76
2022/05/24 14:23:30;;;;;;;;;0.00;0.00;;;;;19.73;42.38;100552.69;4934650;28;45652;-76
2022/05/24 14:25:56;;;;;;;;;0.00;0.00;;;;;19.76;42.16;100551.63;4952765;28;45413;-76
2022/05/24 14:28:25;;;;;;;;;0.00;0.00;;;;;19.78;41.84;100564.06;4936005;28;45599;-76
2022/05/24 14:30:51;;;;;;;;;0.00;0.00;;;;;19.80;41.77;100550.41;4936573;28;45448;-77
2022/05/24 14:33:20;;;;;;;;;0.00;0.00;;;;;19.84;41.66;100567.31;4934167;28;45450;-76
2022/05/24 14:35:46;;;;;;;;;0.00;0.00;;;;;19.85;42.05;100567.19;4927223;28;45995;-76
2022/05/24 14:38:12;;;;;;;;;0.25;0.25;;;;;19.88;41.81;100566.09;4935727;28;45324;-76
2022/05/24 14:40:40;;;;;;;;;0.75;0.00;;;;;19.89;42.19;100557.84;4936361;28;46176;-76
2022/05/24 14:43:12;;;;;;;;;0.00;0.00;;;;;19.96;42.29;100571.78;4935875;28;45672;-76
2022/05/24 14:45:38;;;;;;;;;0.00;0.00;;;;;19.89;42.20;100565.97;4938090;28;45396;-76
2022/05/24 14:48:04;;;;;;;;;0.00;0.00;;;;;19.95;42.33;100575.50;4935922;28;46454;-76
2022/05/24 14:50:30;;;;;;;;;0.00;0.00;;;;;19.93;42.33;100572.91;4936412;28;45799;-76
2022/05/24 14:52:56;;;;;;;;;0.00;0.00;;;;;19.94;42.46;100565.63;4935635;28;45647;-76
2022/05/24 14:55:24;;;;;;;;;0.00;0.00;;;;;19.88;42.01;100564.25;4940216;28;45582;-77
2022/05/24 14:57:49;;;;;;;;;1.00;0.00;;;;;19.87;42.01;100558.97;4935829;28;45491;-77
2022/05/24 15:00:17;;;;;;;;;3.00;0.00;;;;;19.92;42.14;100568.47;4937865;28;46578;-77
2022/05/24 15:02:43;;;;;;;;;0.00;0.00;;;;;19.92;41.93;100568.47;4934287;28;45748;-76
2022/05/24 15:05:09;;;;;;;;;1.00;0.00;;;;;19.93;42.25;100561.19;4932904;28;45617;-77
2022/05/24 15:15:48;;;;;;;;;0.00;0.00;;;;;20.09;42.63;100585.31;4934563;28;45497;-76
2022/05/24 15:18:13;;;;;;;;;0.00;0.00;;;;;20.14;41.88;100591.25;4933751;28;45445;-76
2022/05/24 15:20:41;;;;;;;;;0.00;0.00;;;;;20.16;42.28;100584.75;4928341;28;45609;-77
2022/05/24 15:23:17;;;;;;;;;0.00;0.00;;;;;20.14;41.67;100575.84;4933183;28;45408;-76
2022/05/24 15:25:53;;;;;;;;;1.75;0.00;;;;;20.18;41.96;100579.22;4934262;28;45488;-77
2022/05/24 15:28:21;;;;;;;;;1.00;0.00;;;;;20.20;41.73;100590.78;4937117;28;45415;-77
2022/05/24 15:30:46;;;;;;;;;0.00;0.00;;;;;20.22;41.62;100594.25;4934723;28;47203;-77
2022/05/24 15:33:13;;;;;;;;;0.75;0.75;;;;;20.24;41.69;100604.97;4933601;28;45447;-77
2022/05/24 15:35:39;;;;;;;;;0.25;0.00;;;;;20.21;41.23;100606.06;4928329;28;45479;-77
2022/05/24 15:38:05;;;;;;;;;0.00;0.00;;;;;20.22;41.67;100624.06;4936159;28;45360;-76
2022/05/24 15:40:33;;;;;;;;;0.00;0.00;;;;;20.23;42.30;100650.19;4935072;28;45889;-77
2022/05/24 15:43:00;;;;;;;;;1.00;0.00;;;;;20.14;42.76;100649.00;4930785;28;46185;-77
2022/05/24 15:45:26;;;;;;;;;0.00;0.00;;;;;20.04;43.17;100664.22;4944933;28;45409;-77
2022/05/24 15:47:51;;;;;;;;;0.00;0.00;;;;;19.96;43.51;100667.50;4930073;28;45747;-76
2022/05/24 15:50:16;;;;;;;;;0.00;0.00;;;;;19.88;43.94;100667.19;4944586;28;45489;-76
2022/05/24 15:52:42;;;;;;;;;0.00;0.00;;;;;19.78;44.03;100661.56;4936619;28;45487;-77
2022/05/24 15:55:10;;;;;;;;;0.00;0.00;;;;;19.73;44.34;100658.31;4977662;28;45497;-77
2022/05/24 15:57:36;;;;;;;;;0.00;0.00;;;;;19.67;44.47;100652.47;4942023;28;45439;-76
2022/05/24 16:00:04;;;;;;;;;1.00;0.00;;;;;19.70;44.67;100660.38;4954000;28;45697;-77
2022/05/24 16:02:29;;;;;;;;;1.00;0.00;;;;;19.64;44.92;100656.25;4946773;28;45726;-77
2022/05/24 16:10:22;;;;;;;;;1.50;0.00;;;;;19.50;44.91;100643.69;4943435;28;45843;-77
2022/05/24 16:12:52;;;;;;;;;0.00;0.00;;;;;19.50;45.07;100650.97;4924336;28;45382;-77
2022/05/24 16:15:22;;;;;;;;;0.00;0.00;;;;;19.51;45.64;100656.28;4974273;28;45758;-77
2022/05/24 16:17:50;;;;;;;;;0.00;0.00;;;;;19.49;45.41;100647.38;4971112;28;45394;-77
2022/05/24 16:20:15;;;;;;;;;0.00;0.00;;;;;19.46;45.57;100653.00;4936920;28;45408;-77
2022/05/24 16:22:43;;;;;;;;;0.00;0.00;;;;;19.44;45.35;100654.97;4981964;28;46437;-77
2022/05/24 16:25:09;;;;;;;;;0.00;0.00;;;;;19.42;45.55;100651.50;4949787;28;45549;-77
2022/05/24 16:27:35;;;;;;;;;0.00;0.00;;;;;19.41;45.61;100644.34;4934218;28;46842;-78
2022/05/24 16:30:00;;;;;;;;;0.00;0.00;;;;;19.43;45.35;100661.38;4970872;28;46956;-77
2022/05/24 16:32:27;;;;;;;;;0.00;0.00;;;;;19.44;45.23;100657.66;4948269;28;45334;-77
2022/05/24 16:34:53;;;;;;;;;0.00;0.00;;;;;19.41;45.25;100660.59;4941761;28;45461;-77
2022/05/24 16:37:18;;;;;;;;;0.00;0.00;;;;;19.44;44.90;100669.38;4936681;28;45332;-77
2022/05/24 16:39:44;;;;;;;;;0.25;0.00;;;;;19.41;44.79;100680.41;4959537;28;48049;-77
2022/05/24 16:42:10;;;;;;;;;0.00;0.00;;;;;19.40;44.69;100677.81;4943896;28;45436;-76
2022/05/24 16:44:36;;;;;;;;;0.00;0.00;;;;;19.40;44.75;100672.41;4938719;28;45538;-76
2022/05/24 16:47:01;;;;;;;;;0.75;0.00;;;;;19.43;44.45;100678.47;4928959;28;45547;-76
2022/05/24 16:49:26;;;;;;;;;0.00;0.00;;;;;19.43;44.42;100677.59;4938296;28;45353;-77
2022/05/24 16:51:56;;;;;;;;;0.00;0.00;;;;;19.44;44.59;100673.91;4941950;28;45358;-76
2022/05/24 16:59:50;;;;;;;;;0.00;0.00;;;;;19.50;44.53;100668.06;4935782;28;45431;-75
2022/05/24 17:02:15;;;;;;;;;0.00;0.00;;;;;19.50;44.59;100667.22;4959258;28;45320;-76
2022/05/24 17:04:41;;;;;;;;;0.00;0.00;;;;;19.45;44.37;100667.53;4949918;28;45419;-76
2022/05/24 17:07:07;;;;;;;;;0.00;0.00;;;;;19.46;44.29;100661.13;4933090;28;45587;-76
2022/05/24 17:09:32;;;;;;;;;0.00;0.00;;;;;19.46;44.05;100666.53;4953295;28;46500;-76
2022/05/24 17:11:58;;;;;;;;;1.00;0.00;;;;;19.38;43.56;100663.53;4959218;28;45200;-76
2022/05/24 17:14:24;;;;;;;;;0.00;0.00;;;;;19.40;44.17;100680.53;4959300;28;45486;-76
2022/05/24 17:16:50;;;;;;;;;0.00;0.00;;;;;19.36;44.13;100670.88;4956422;28;45530;-76
2022/05/24 17:19:16;;;;;;;;;0.00;0.00;;;;;19.38;43.86;100669.81;4955062;28;45512;-76
2022/05/24 17:21:41;;;;;;;;;0.00;0.00;;;;;19.45;43.98;100675.66;4959122;28;45419;-76
2022/05/24 17:24:07;;;;;;;;;0.00;0.00;;;;;19.45;44.25;100678.34;4949896;28;45414;-76
2022/05/24 17:26:33;;;;;;;;;1.00;0.00;;;;;19.47;44.65;100684.53;4946135;28;45576;-75
2022/05/24 17:28:58;;;;;;;;;0.00;0.00;;;;;19.48;44.70;100688.09;4938379;28;45416;-76
2022/05/24 17:31:24;;;;;;;;;0.25;0.25;;;;;19.47;44.52;100691.78;4933889;28;45434;-76
2022/05/24 17:33:49;;;;;;;;;0.00;0.00;;;;;19.36;45.09;100673.56;4935582;28;45408;-77
2022/05/24 17:36:15;;;;;;;;;0.00;0.00;;;;;19.46;45.12;100703.56;4938950;28;45548;-76
2022/05/24 17:38:40;;;;;;;;;0.00;0.00;;;;;19.47;44.90;100700.75;4943609;28;46769;-76
2022/05/24 17:41:18;;;;;;;;;0.00;0.00;;;;;19.44;45.15;100703.69;4949967;28;45229;-75
2022/05/24 17:43:43;;;;;;;;;0.00;0.00;;;;;19.43;45.13;100705.53;4938324;28;45460;-76
2022/05/24 17:46:10;;;;;;;;;0.00;0.00;;;;;19.46;45.06;100712.56;4944362;28;45213;-75
2022/05/24 17:48:39;;;;;;;;;0.00;0.00;;;;;19.40;45.23;100711.16;4948042;28;45547;-77
2022/05/24 17:51:04;;;;;;;;;1.50;0.00;;;;;19.43;45.14;100704.69;4938483;28;45376;-74
2022/05/24 17:53:30;;;;;;;;;0.00;0.00;;;;;19.40;44.77;100713.00;4952749;28;45295;-74
2022/05/24 17:55:55;;;;;;;;;0.00;0.00;;;;;19.38;44.59;100723.09;4939458;28;45487;-75
2022/05/24 17:58:22;;;;;;;;;0.00;0.00;;;;;19.35;44.38;100734.97;4944170;28;47021;-73
2022/05/24 18:00:48;;;;;;;;;1.00;0.00;;;;;19.37;44.29;100734.88;4933480;28;45638;-73
2022/05/24 18:03:16;;;;;;;;;0.00;0.00;;;;;19.35;44.61;100739.53;4933572;28;45725;-74
2022/05/24 18:05:41;;;;;;;;;0.75;0.75;;;;;19.38;44.31;100740.19;4961396;28;45588;-74
2022/05/24 18:08:07;;;;;;;;;0.00;0.00;;;;;19.36;44.86;100741.25;4933605;28;45640;-74
2022/05/24 18:10:34;;;;;;;;;0.75;0.00;;;;;19.32;44.31;100742.44;4959044;28;45575;-75
2022/05/24 18:13:00;;;;;;;;;0.00;0.00;;;;;19.30;44.52;100745.25;4928738;28;45436;-74
2022/05/24 18:15:25;;;;;;;;;0.00;0.00;;;;;19.32;44.33;100746.00;4932601;28;45505;-73
2022/05/24 18:17:50;;;;;;;;;0.00;0.00;;;;;19.34;44.63;100749.47;4932471;28;46461;-75
2022/05/24 18:20:16;;;;;;;;;1.75;0.00;;;;;19.34;44.86;100752.16;4930545;28;45592;-76
2022/05/24 18:22:47;;;;;;;;;0.00;0.00;;;;;19.32;45.09;100758.69;4934234;28;45506;-76
2022/05/24 18:33:06;;;;;;;;;0.00;0.00;;;;;19.29;45.13;100761.59;4943993;28;45735;-75
2022/05/24 18:33:42;;;;;;;;;1.25;0.00;;;;;19.26;45.54;100768.06;4926853;28;45765;-74
2022/05/24 18:36:09;;;;;;;;;0.00;0.00;;;;;19.25;45.71;100772.63;4932735;28;45812;-73
2022/05/24 18:38:34;;;;;;;;;0.00;0.00;;;;;19.25;45.67;100767.22;4933378;28;46907;-75
2022/05/24 18:41:00;;;;;;;;;0.00;0.00;;;;;19.27;45.50;100774.38;4938871;28;45483;-74
2022/05/24 18:43:25;;;;;;;;;1.00;0.25;;;;;19.23;45.89;100766.47;4929475;28;45404;-73
2022/05/24 18:45:51;;;;;;;;;0.00;0.00;;;;;19.18;45.94;100765.06;4917673;28;45829;-75
2022/05/24 18:48:17;;;;;;;;;2.00;0.00;;;;;19.14;45.87;100771.63;4933982;28;46300;-77
2022/05/24 18:50:43;;;;;;;;;0.00;0.00;;;;;19.16;45.79;100784.09;4944854;28;45513;-77
2022/05/24 18:53:09;;;;;;;;;0.00;0.00;;;;;19.17;45.84;100776.84;4948484;28;45817;-78
2022/05/24 18:55:36;;;;;;;;;0.50;0.00;;;;;19.14;46.01;100783.31;4939693;28;45831;-72
2022/05/24 18:58:03;;;;;;;;;0.25;0.25;;;;;19.17;46.23;100787.66;4942360;28;45518;-75
2022/05/24 19:00:28;;;;;;;;;0.00;0.00;;;;;19.14;45.86;100794.13;4945529;28;45658;-75
2022/05/24 19:02:55;;;;;;;;;0.00;0.00;;;;;19.08;46.05;100786.44;4948033;28;45587;-76